sensor_id;sensor_type;location;lat;lon;timestamp;P1;durP1;ratioP1;P2;durP2;ratioP2
26040;SDS011;13816;53.628;9.950;2023-05-07T00:02:22;14.63;;;11.77;;
26040;SDS011;13816;53.628;9.950;2023-05-07T00:04:49;14.33;;;11.63;;
26040;SDS011;13816;53.628;9.950;2023-05-07T00:07:17;12.70;;;10.37;;
26040;SDS011;13816;53.628;9.950;2023-05-07T00:09:44;13.10;;;11.47;;
26040;SDS011;13816;53.628;9.950;2023-05-07T00:12:12;12.93;;;11.13;;
26040;SDS011;13816;53.628;9.950;2023-05-07T00:14:39;14.80;;;11.70;;
26040;SDS011;13816;53.628;9.950;2023-05-07T00:17:06;16.57;;;11.40;;
26040;SDS011;13816;53.628;9.950;2023-05-07T00:19:34;16.40;;;11.67;;
26040;SDS011;13816;53.628;9.950;2023-05-07T00:22:02;14.63;;;12.30;;
26040;SDS011;13816;53.628;9.950;2023-05-07T00:24:29;12.60;;;10.80;;
26040;SDS011;13816;53.628;9.950;2023-05-07T00:27:04;21.60;;;11.30;;
26040;SDS011;13816;53.628;9.950;2023-05-07T00:29:31;15.13;;;11.97;;
26040;SDS011;13816;53.628;9.950;2023-05-07T00:32:02;13.70;;;11.20;;
26040;SDS011;13816;53.628;9.950;2023-05-07T00:34:30;14.07;;;11.47;;
26040;SDS011;13816;53.628;9.950;2023-05-07T00:36:58;15.23;;;11.80;;
26040;SDS011;13816;53.628;9.950;2023-05-07T00:39:25;15.90;;;12.77;;
26040;SDS011;13816;53.628;9.950;2023-05-07T00:41:55;14.80;;;12.17;;
26040;SDS011;13816;53.628;9.950;2023-05-07T00:44:23;12.67;;;11.30;;
26040;SDS011;13816;53.628;9.950;2023-05-07T00:46:50;14.63;;;11.57;;
26040;SDS011;13816;53.628;9.950;2023-05-07T00:49:18;18.00;;;11.77;;
26040;SDS011;13816;53.628;9.950;2023-05-07T00:51:46;19.13;;;12.00;;
26040;SDS011;13816;53.628;9.950;2023-05-07T00:54:14;13.50;;;11.87;;
26040;SDS011;13816;53.628;9.950;2023-05-07T00:56:41;15.10;;;11.43;;
26040;SDS011;13816;53.628;9.950;2023-05-07T00:59:09;15.17;;;11.90;;
26040;SDS011;13816;53.628;9.950;2023-05-07T01:01:37;14.50;;;11.50;;
26040;SDS011;13816;53.628;9.950;2023-05-07T01:04:05;13.47;;;11.40;;
26040;SDS011;13816;53.628;9.950;2023-05-07T01:06:33;13.43;;;11.63;;
26040;SDS011;13816;53.628;9.950;2023-05-07T01:09:01;15.27;;;11.13;;
26040;SDS011;13816;53.628;9.950;2023-05-07T01:11:31;13.57;;;10.97;;
26040;SDS011;13816;53.628;9.950;2023-05-07T01:13:58;14.10;;;11.20;;
26040;SDS011;13816;53.628;9.950;2023-05-07T01:16:26;12.37;;;10.73;;
26040;SDS011;13816;53.628;9.950;2023-05-07T01:18:54;14.90;;;10.07;;
26040;SDS011;13816;53.628;9.950;2023-05-07T01:21:24;13.33;;;11.63;;
26040;SDS011;13816;53.628;9.950;2023-05-07T01:23:56;17.33;;;12.50;;
26040;SDS011;13816;53.628;9.950;2023-05-07T01:26:33;14.97;;;11.90;;
26040;SDS011;13816;53.628;9.950;2023-05-07T01:29:01;14.23;;;10.73;;
26040;SDS011;13816;53.628;9.950;2023-05-07T01:31:28;12.70;;;11.13;;
26040;SDS011;13816;53.628;9.950;2023-05-07T01:33:56;14.50;;;11.40;;
26040;SDS011;13816;53.628;9.950;2023-05-07T01:36:29;12.70;;;11.40;;
26040;SDS011;13816;53.628;9.950;2023-05-07T01:38:57;11.80;;;10.30;;
26040;SDS011;13816;53.628;9.950;2023-05-07T01:41:26;12.80;;;10.43;;
26040;SDS011;13816;53.628;9.950;2023-05-07T01:43:53;16.60;;;11.30;;
26040;SDS011;13816;53.628;9.950;2023-05-07T01:46:21;18.40;;;10.33;;
26040;SDS011;13816;53.628;9.950;2023-05-07T01:48:49;14.20;;;12.40;;
26040;SDS011;13816;53.628;9.950;2023-05-07T01:51:16;14.37;;;11.17;;
26040;SDS011;13816;53.628;9.950;2023-05-07T01:53:49;11.17;;;9.50;;
26040;SDS011;13816;53.628;9.950;2023-05-07T01:56:18;11.40;;;9.97;;
26040;SDS011;13816;53.628;9.950;2023-05-07T01:58:49;12.50;;;9.00;;
26040;SDS011;13816;53.628;9.950;2023-05-07T02:01:18;12.37;;;9.57;;
26040;SDS011;13816;53.628;9.950;2023-05-07T02:03:46;9.97;;;8.93;;
26040;SDS011;13816;53.628;9.950;2023-05-07T02:06:20;10.67;;;9.33;;
26040;SDS011;13816;53.628;9.950;2023-05-07T02:08:50;10.90;;;9.80;;
26040;SDS011;13816;53.628;9.950;2023-05-07T02:11:18;12.60;;;11.10;;
26040;SDS011;13816;53.628;9.950;2023-05-07T02:13:46;11.67;;;9.77;;
26040;SDS011;13816;53.628;9.950;2023-05-07T02:16:13;12.67;;;10.60;;
26040;SDS011;13816;53.628;9.950;2023-05-07T02:18:41;10.80;;;9.63;;
26040;SDS011;13816;53.628;9.950;2023-05-07T02:21:09;11.13;;;9.97;;
26040;SDS011;13816;53.628;9.950;2023-05-07T02:23:36;11.80;;;10.40;;
26040;SDS011;13816;53.628;9.950;2023-05-07T02:26:16;12.20;;;9.60;;
26040;SDS011;13816;53.628;9.950;2023-05-07T02:28:43;12.13;;;9.50;;
26040;SDS011;13816;53.628;9.950;2023-05-07T02:31:11;10.77;;;9.03;;
26040;SDS011;13816;53.628;9.950;2023-05-07T02:33:38;11.83;;;9.13;;
26040;SDS011;13816;53.628;9.950;2023-05-07T02:36:08;12.53;;;9.43;;
26040;SDS011;13816;53.628;9.950;2023-05-07T02:38:43;13.90;;;9.33;;
26040;SDS011;13816;53.628;9.950;2023-05-07T02:41:11;11.50;;;9.63;;
26040;SDS011;13816;53.628;9.950;2023-05-07T02:43:38;11.80;;;8.83;;
26040;SDS011;13816;53.628;9.950;2023-05-07T02:46:07;11.00;;;8.70;;
26040;SDS011;13816;53.628;9.950;2023-05-07T02:48:38;11.30;;;9.13;;
26040;SDS011;13816;53.628;9.950;2023-05-07T02:51:05;13.87;;;9.30;;
26040;SDS011;13816;53.628;9.950;2023-05-07T02:53:34;10.90;;;8.73;;
26040;SDS011;13816;53.628;9.950;2023-05-07T02:56:02;9.73;;;8.20;;
26040;SDS011;13816;53.628;9.950;2023-05-07T02:58:29;10.87;;;8.97;;
26040;SDS011;13816;53.628;9.950;2023-05-07T03:00:59;9.87;;;8.87;;
26040;SDS011;13816;53.628;9.950;2023-05-07T03:03:39;11.83;;;9.87;;
26040;SDS011;13816;53.628;9.950;2023-05-07T03:06:07;13.80;;;9.60;;
26040;SDS011;13816;53.628;9.950;2023-05-07T03:08:34;16.10;;;9.20;;
26040;SDS011;13816;53.628;9.950;2023-05-07T03:11:03;12.03;;;9.43;;
26040;SDS011;13816;53.628;9.950;2023-05-07T03:13:30;11.70;;;9.77;;
26040;SDS011;13816;53.628;9.950;2023-05-07T03:15:57;11.50;;;9.47;;
26040;SDS011;13816;53.628;9.950;2023-05-07T03:18:25;11.77;;;9.53;;
26040;SDS011;13816;53.628;9.950;2023-05-07T03:20:53;13.33;;;9.90;;
26040;SDS011;13816;53.628;9.950;2023-05-07T03:23:20;12.30;;;9.90;;
26040;SDS011;13816;53.628;9.950;2023-05-07T03:25:50;10.83;;;9.60;;
26040;SDS011;13816;53.628;9.950;2023-05-07T03:28:17;12.87;;;10.70;;
26040;SDS011;13816;53.628;9.950;2023-05-07T03:30:53;16.87;;;10.40;;
26040;SDS011;13816;53.628;9.950;2023-05-07T03:33:21;13.70;;;11.37;;
26040;SDS011;13816;53.628;9.950;2023-05-07T03:35:51;12.83;;;10.07;;
26040;SDS011;13816;53.628;9.950;2023-05-07T03:38:22;12.23;;;10.57;;
26040;SDS011;13816;53.628;9.950;2023-05-07T03:40:50;13.10;;;11.10;;
26040;SDS011;13816;53.628;9.950;2023-05-07T03:43:18;14.53;;;12.13;;
26040;SDS011;13816;53.628;9.950;2023-05-07T03:45:51;16.80;;;11.27;;
26040;SDS011;13816;53.628;9.950;2023-05-07T03:48:22;13.20;;;11.43;;
26040;SDS011;13816;53.628;9.950;2023-05-07T03:50:55;16.20;;;10.00;;
26040;SDS011;13816;53.628;9.950;2023-05-07T03:53:25;14.33;;;9.60;;
26040;SDS011;13816;53.628;9.950;2023-05-07T03:55:53;13.07;;;9.50;;
26040;SDS011;13816;53.628;9.950;2023-05-07T03:58:21;12.27;;;10.00;;
26040;SDS011;13816;53.628;9.950;2023-05-07T04:00:49;9.83;;;8.83;;
26040;SDS011;13816;53.628;9.950;2023-05-07T04:03:22;12.23;;;9.80;;
26040;SDS011;13816;53.628;9.950;2023-05-07T04:05:51;12.50;;;10.13;;
26040;SDS011;13816;53.628;9.950;2023-05-07T04:08:18;11.70;;;9.50;;
26040;SDS011;13816;53.628;9.950;2023-05-07T04:10:53;12.60;;;10.37;;
26040;SDS011;13816;53.628;9.950;2023-05-07T04:13:22;11.83;;;9.17;;
26040;SDS011;13816;53.628;9.950;2023-05-07T04:15:54;15.17;;;10.07;;
26040;SDS011;13816;53.628;9.950;2023-05-07T04:18:28;10.20;;;9.20;;
26040;SDS011;13816;53.628;9.950;2023-05-07T04:20:56;10.70;;;9.07;;
26040;SDS011;13816;53.628;9.950;2023-05-07T04:23:23;13.40;;;9.97;;
26040;SDS011;13816;53.628;9.950;2023-05-07T04:25:52;11.80;;;10.13;;
26040;SDS011;13816;53.628;9.950;2023-05-07T04:28:29;11.80;;;10.30;;
26040;SDS011;13816;53.628;9.950;2023-05-07T04:30:57;11.27;;;9.30;;
26040;SDS011;13816;53.628;9.950;2023-05-07T04:33:25;19.07;;;10.20;;
26040;SDS011;13816;53.628;9.950;2023-05-07T04:35:55;14.33;;;10.17;;
26040;SDS011;13816;53.628;9.950;2023-05-07T04:38:22;13.13;;;10.00;;
26040;SDS011;13816;53.628;9.950;2023-05-07T04:40:52;10.03;;;8.90;;
26040;SDS011;13816;53.628;9.950;2023-05-07T04:43:23;10.83;;;8.90;;
26040;SDS011;13816;53.628;9.950;2023-05-07T04:45:51;10.67;;;9.17;;
26040;SDS011;13816;53.628;9.950;2023-05-07T04:48:22;10.47;;;9.20;;
26040;SDS011;13816;53.628;9.950;2023-05-07T04:50:51;13.03;;;9.00;;
26040;SDS011;13816;53.628;9.950;2023-05-07T04:53:19;9.67;;;8.13;;
26040;SDS011;13816;53.628;9.950;2023-05-07T04:55:47;8.83;;;7.93;;
26040;SDS011;13816;53.628;9.950;2023-05-07T04:58:15;8.90;;;8.00;;
26040;SDS011;13816;53.628;9.950;2023-05-07T05:00:45;7.93;;;7.10;;
26040;SDS011;13816;53.628;9.950;2023-05-07T05:03:13;9.93;;;8.47;;
26040;SDS011;13816;53.628;9.950;2023-05-07T05:05:42;9.80;;;8.57;;
26040;SDS011;13816;53.628;9.950;2023-05-07T05:08:10;10.53;;;8.37;;
26040;SDS011;13816;53.628;9.950;2023-05-07T05:10:41;13.60;;;8.50;;
26040;SDS011;13816;53.628;9.950;2023-05-07T05:13:12;11.47;;;9.37;;
26040;SDS011;13816;53.628;9.950;2023-05-07T05:15:41;9.83;;;8.83;;
26040;SDS011;13816;53.628;9.950;2023-05-07T05:18:08;10.37;;;8.50;;
26040;SDS011;13816;53.628;9.950;2023-05-07T05:20:39;11.70;;;9.30;;
26040;SDS011;13816;53.628;9.950;2023-05-07T05:23:08;11.17;;;9.60;;
26040;SDS011;13816;53.628;9.950;2023-05-07T05:25:37;12.20;;;9.60;;
26040;SDS011;13816;53.628;9.950;2023-05-07T05:28:10;10.63;;;8.57;;
26040;SDS011;13816;53.628;9.950;2023-05-07T05:30:38;11.13;;;9.30;;
26040;SDS011;13816;53.628;9.950;2023-05-07T05:33:08;13.63;;;9.40;;
26040;SDS011;13816;53.628;9.950;2023-05-07T05:35:37;10.70;;;8.90;;
26040;SDS011;13816;53.628;9.950;2023-05-07T05:38:10;14.53;;;10.30;;
26040;SDS011;13816;53.628;9.950;2023-05-07T05:40:40;10.10;;;8.60;;
26040;SDS011;13816;53.628;9.950;2023-05-07T05:43:08;12.03;;;9.77;;
26040;SDS011;13816;53.628;9.950;2023-05-07T05:45:37;11.37;;;9.70;;
26040;SDS011;13816;53.628;9.950;2023-05-07T05:48:06;13.10;;;9.83;;
26040;SDS011;13816;53.628;9.950;2023-05-07T05:50:38;10.63;;;8.73;;
26040;SDS011;13816;53.628;9.950;2023-05-07T05:53:07;11.00;;;9.10;;
26040;SDS011;13816;53.628;9.950;2023-05-07T05:55:35;13.43;;;9.93;;
26040;SDS011;13816;53.628;9.950;2023-05-07T05:58:04;13.00;;;8.90;;
26040;SDS011;13816;53.628;9.950;2023-05-07T06:00:36;10.27;;;9.20;;
26040;SDS011;13816;53.628;9.950;2023-05-07T06:03:06;12.47;;;9.90;;
26040;SDS011;13816;53.628;9.950;2023-05-07T06:09:42;14.40;;;9.40;;
26040;SDS011;13816;53.628;9.950;2023-05-07T06:12:11;11.13;;;9.93;;
26040;SDS011;13816;53.628;9.950;2023-05-07T06:14:43;11.83;;;9.03;;
26040;SDS011;13816;53.628;9.950;2023-05-07T06:17:17;10.70;;;8.93;;
26040;SDS011;13816;53.628;9.950;2023-05-07T06:19:51;10.83;;;8.90;;
26040;SDS011;13816;53.628;9.950;2023-05-07T06:22:20;9.53;;;8.53;;
26040;SDS011;13816;53.628;9.950;2023-05-07T06:24:58;10.97;;;9.00;;
26040;SDS011;13816;53.628;9.950;2023-05-07T06:27:27;11.57;;;8.30;;
26040;SDS011;13816;53.628;9.950;2023-05-07T06:30:01;9.70;;;8.23;;
26040;SDS011;13816;53.628;9.950;2023-05-07T06:32:29;9.60;;;8.57;;
26040;SDS011;13816;53.628;9.950;2023-05-07T06:34:57;9.63;;;8.13;;
26040;SDS011;13816;53.628;9.950;2023-05-07T06:37:27;11.00;;;8.80;;
26040;SDS011;13816;53.628;9.950;2023-05-07T06:40:00;11.40;;;8.70;;
26040;SDS011;13816;53.628;9.950;2023-05-07T06:42:30;10.27;;;8.30;;
26040;SDS011;13816;53.628;9.950;2023-05-07T06:45:21;10.40;;;8.70;;
26040;SDS011;13816;53.628;9.950;2023-05-07T06:48:03;9.70;;;7.80;;
26040;SDS011;13816;53.628;9.950;2023-05-07T06:50:43;9.53;;;8.37;;
26040;SDS011;13816;53.628;9.950;2023-05-07T06:53:24;9.20;;;8.20;;
26040;SDS011;13816;53.628;9.950;2023-05-07T06:55:58;10.63;;;8.40;;
26040;SDS011;13816;53.628;9.950;2023-05-07T06:58:33;9.47;;;7.90;;
26040;SDS011;13816;53.628;9.950;2023-05-07T07:01:06;9.17;;;7.53;;
26040;SDS011;13816;53.628;9.950;2023-05-07T07:03:53;9.23;;;7.60;;
26040;SDS011;13816;53.628;9.950;2023-05-07T07:06:23;9.40;;;7.37;;
26040;SDS011;13816;53.628;9.950;2023-05-07T07:09:00;11.03;;;7.50;;
26040;SDS011;13816;53.628;9.950;2023-05-07T07:11:31;11.20;;;8.13;;
26040;SDS011;13816;53.628;9.950;2023-05-07T07:14:01;10.53;;;7.67;;
26040;SDS011;13816;53.628;9.950;2023-05-07T07:16:40;8.63;;;7.50;;
26040;SDS011;13816;53.628;9.950;2023-05-07T07:19:08;9.90;;;7.77;;
26040;SDS011;13816;53.628;9.950;2023-05-07T07:21:44;8.20;;;7.27;;
26040;SDS011;13816;53.628;9.950;2023-05-07T07:24:19;7.83;;;7.03;;
26040;SDS011;13816;53.628;9.950;2023-05-07T07:27:03;8.67;;;7.43;;
26040;SDS011;13816;53.628;9.950;2023-05-07T07:29:41;8.27;;;7.40;;
26040;SDS011;13816;53.628;9.950;2023-05-07T07:32:15;8.57;;;7.77;;
26040;SDS011;13816;53.628;9.950;2023-05-07T07:34:46;8.87;;;7.60;;
26040;SDS011;13816;53.628;9.950;2023-05-07T07:37:14;9.70;;;7.73;;
26040;SDS011;13816;53.628;9.950;2023-05-07T07:39:45;9.13;;;6.87;;
26040;SDS011;13816;53.628;9.950;2023-05-07T07:42:19;9.33;;;6.57;;
26040;SDS011;13816;53.628;9.950;2023-05-07T07:45:23;8.50;;;6.73;;
26040;SDS011;13816;53.628;9.950;2023-05-07T07:48:12;8.00;;;6.70;;
26040;SDS011;13816;53.628;9.950;2023-05-07T07:53:29;7.53;;;6.50;;
26040;SDS011;13816;53.628;9.950;2023-05-07T07:56:09;8.27;;;7.00;;
26040;SDS011;13816;53.628;9.950;2023-05-07T07:59:03;7.40;;;6.53;;
26040;SDS011;13816;53.628;9.950;2023-05-07T08:01:40;6.30;;;5.60;;
26040;SDS011;13816;53.628;9.950;2023-05-07T08:04:15;6.33;;;5.70;;
26040;SDS011;13816;53.628;9.950;2023-05-07T08:06:46;7.57;;;6.20;;
26040;SDS011;13816;53.628;9.950;2023-05-07T08:09:16;11.80;;;6.20;;
26040;SDS011;13816;53.628;9.950;2023-05-07T08:11:46;5.73;;;5.13;;
26040;SDS011;13816;53.628;9.950;2023-05-07T08:14:14;8.33;;;5.93;;
26040;SDS011;13816;53.628;9.950;2023-05-07T08:16:46;9.20;;;6.60;;
26040;SDS011;13816;53.628;9.950;2023-05-07T08:19:21;7.23;;;5.53;;
26040;SDS011;13816;53.628;9.950;2023-05-07T08:21:55;7.57;;;6.80;;
26040;SDS011;13816;53.628;9.950;2023-05-07T08:24:27;8.07;;;6.50;;
26040;SDS011;13816;53.628;9.950;2023-05-07T08:27:01;9.73;;;6.47;;
26040;SDS011;13816;53.628;9.950;2023-05-07T08:29:33;9.00;;;6.13;;
26040;SDS011;13816;53.628;9.950;2023-05-07T08:32:01;6.43;;;5.83;;
26040;SDS011;13816;53.628;9.950;2023-05-07T08:34:31;6.63;;;5.93;;
26040;SDS011;13816;53.628;9.950;2023-05-07T08:37:03;6.30;;;5.57;;
26040;SDS011;13816;53.628;9.950;2023-05-07T08:39:36;8.23;;;6.90;;
26040;SDS011;13816;53.628;9.950;2023-05-07T08:42:13;7.87;;;6.50;;
26040;SDS011;13816;53.628;9.950;2023-05-07T08:44:45;6.73;;;6.13;;
26040;SDS011;13816;53.628;9.950;2023-05-07T08:47:20;9.67;;;7.30;;
26040;SDS011;13816;53.628;9.950;2023-05-07T08:49:54;6.80;;;6.10;;
26040;SDS011;13816;53.628;9.950;2023-05-07T09:12:35;7.23;;;6.30;;
26040;SDS011;13816;53.628;9.950;2023-05-07T09:15:04;8.33;;;6.83;;
26040;SDS011;13816;53.628;9.950;2023-05-07T09:17:32;6.83;;;6.23;;
26040;SDS011;13816;53.628;9.950;2023-05-07T09:20:04;7.60;;;6.83;;
26040;SDS011;13816;53.628;9.950;2023-05-07T09:42:45;7.77;;;5.60;;
26040;SDS011;13816;53.628;9.950;2023-05-07T09:45:14;5.90;;;5.30;;
26040;SDS011;13816;53.628;9.950;2023-05-07T09:47:45;6.33;;;5.73;;
26040;SDS011;13816;53.628;9.950;2023-05-07T10:10:15;6.43;;;5.53;;
26040;SDS011;13816;53.628;9.950;2023-05-07T10:52:46;8.20;;;4.53;;
26040;SDS011;13816;53.628;9.950;2023-05-07T11:16:26;4.97;;;4.40;;
26040;SDS011;13816;53.628;9.950;2023-05-07T11:19:58;4.00;;;3.70;;
26040;SDS011;13816;53.628;9.950;2023-05-07T11:38:04;5.10;;;4.60;;
26040;SDS011;13816;53.628;9.950;2023-05-07T12:25:53;4.13;;;3.10;;
26040;SDS011;13816;53.628;9.950;2023-05-07T13:51:40;3.20;;;2.47;;
26040;SDS011;13816;53.628;9.950;2023-05-07T13:54:08;2.43;;;2.00;;
26040;SDS011;13816;53.628;9.950;2023-05-07T13:56:36;2.00;;;1.73;;
26040;SDS011;13816;53.628;9.950;2023-05-07T13:59:03;2.10;;;2.00;;
26040;SDS011;13816;53.628;9.950;2023-05-07T14:01:31;2.63;;;2.43;;
26040;SDS011;13816;53.628;9.950;2023-05-07T14:03:58;2.07;;;1.97;;
26040;SDS011;13816;53.628;9.950;2023-05-07T14:06:26;2.90;;;2.40;;
26040;SDS011;13816;53.628;9.950;2023-05-07T14:08:53;2.37;;;2.17;;
26040;SDS011;13816;53.628;9.950;2023-05-07T14:11:24;2.20;;;2.10;;
26040;SDS011;13816;53.628;9.950;2023-05-07T14:13:52;2.30;;;2.10;;
26040;SDS011;13816;53.628;9.950;2023-05-07T14:16:19;6.90;;;2.10;;
26040;SDS011;13816;53.628;9.950;2023-05-07T14:18:46;2.57;;;2.37;;
26040;SDS011;13816;53.628;9.950;2023-05-07T14:21:14;9.27;;;2.50;;
26040;SDS011;13816;53.628;9.950;2023-05-07T14:23:41;3.00;;;1.73;;
26040;SDS011;13816;53.628;9.950;2023-05-07T14:26:09;2.30;;;2.10;;
26040;SDS011;13816;53.628;9.950;2023-05-07T14:28:36;2.17;;;1.97;;
26040;SDS011;13816;53.628;9.950;2023-05-07T14:31:05;3.10;;;2.57;;
26040;SDS011;13816;53.628;9.950;2023-05-07T14:33:33;2.37;;;2.17;;
26040;SDS011;13816;53.628;9.950;2023-05-07T14:36:00;2.90;;;2.50;;
26040;SDS011;13816;53.628;9.950;2023-05-07T14:38:29;2.00;;;1.80;;
26040;SDS011;13816;53.628;9.950;2023-05-07T14:40:59;2.20;;;2.00;;
26040;SDS011;13816;53.628;9.950;2023-05-07T14:43:27;4.67;;;1.97;;
26040;SDS011;13816;53.628;9.950;2023-05-07T14:45:54;2.37;;;1.90;;
26040;SDS011;13816;53.628;9.950;2023-05-07T14:48:21;2.00;;;1.90;;
26040;SDS011;13816;53.628;9.950;2023-05-07T14:50:49;4.90;;;2.63;;
26040;SDS011;13816;53.628;9.950;2023-05-07T14:53:16;1.87;;;1.70;;
26040;SDS011;13816;53.628;9.950;2023-05-07T14:55:44;3.77;;;2.40;;
26040;SDS011;13816;53.628;9.950;2023-05-07T14:58:12;2.67;;;2.00;;
26040;SDS011;13816;53.628;9.950;2023-05-07T15:00:39;4.87;;;2.53;;
26040;SDS011;13816;53.628;9.950;2023-05-07T15:03:08;2.60;;;2.40;;
26040;SDS011;13816;53.628;9.950;2023-05-07T15:05:37;2.57;;;2.20;;
26040;SDS011;13816;53.628;9.950;2023-05-07T15:08:05;3.23;;;2.10;;
26040;SDS011;13816;53.628;9.950;2023-05-07T15:10:34;2.13;;;1.93;;
26040;SDS011;13816;53.628;9.950;2023-05-07T15:13:07;6.13;;;2.00;;
26040;SDS011;13816;53.628;9.950;2023-05-07T15:15:38;2.73;;;2.40;;
26040;SDS011;13816;53.628;9.950;2023-05-07T15:18:05;2.60;;;1.90;;
26040;SDS011;13816;53.628;9.950;2023-05-07T15:20:33;2.33;;;2.13;;
26040;SDS011;13816;53.628;9.950;2023-05-07T15:23:01;3.93;;;1.97;;
26040;SDS011;13816;53.628;9.950;2023-05-07T15:25:31;4.30;;;2.30;;
26040;SDS011;13816;53.628;9.950;2023-05-07T15:28:00;2.37;;;2.00;;
26040;SDS011;13816;53.628;9.950;2023-05-07T15:30:27;2.50;;;2.30;;
26040;SDS011;13816;53.628;9.950;2023-05-07T15:32:55;2.13;;;2.03;;
26040;SDS011;13816;53.628;9.950;2023-05-07T15:35:22;2.90;;;2.60;;
26040;SDS011;13816;53.628;9.950;2023-05-07T15:37:52;2.77;;;2.27;;
26040;SDS011;13816;53.628;9.950;2023-05-07T15:40:20;2.17;;;1.97;;
26040;SDS011;13816;53.628;9.950;2023-05-07T15:42:47;2.77;;;2.53;;
26040;SDS011;13816;53.628;9.950;2023-05-07T15:45:15;2.20;;;2.10;;
26040;SDS011;13816;53.628;9.950;2023-05-07T15:47:44;3.13;;;2.60;;
26040;SDS011;13816;53.628;9.950;2023-05-07T15:50:13;2.60;;;2.23;;
26040;SDS011;13816;53.628;9.950;2023-05-07T15:52:41;4.67;;;2.67;;
26040;SDS011;13816;53.628;9.950;2023-05-07T15:55:08;3.90;;;2.33;;
26040;SDS011;13816;53.628;9.950;2023-05-07T15:57:36;2.50;;;2.30;;
26040;SDS011;13816;53.628;9.950;2023-05-07T16:00:04;2.70;;;2.40;;
26040;SDS011;13816;53.628;9.950;2023-05-07T16:02:40;2.40;;;2.20;;
26040;SDS011;13816;53.628;9.950;2023-05-07T16:05:08;3.07;;;2.43;;
26040;SDS011;13816;53.628;9.950;2023-05-07T16:07:36;2.33;;;2.13;;
26040;SDS011;13816;53.628;9.950;2023-05-07T16:10:04;3.00;;;2.50;;
26040;SDS011;13816;53.628;9.950;2023-05-07T16:12:31;2.60;;;2.40;;
26040;SDS011;13816;53.628;9.950;2023-05-07T16:14:59;2.60;;;2.40;;
26040;SDS011;13816;53.628;9.950;2023-05-07T16:17:26;2.13;;;2.03;;
26040;SDS011;13816;53.628;9.950;2023-05-07T16:19:54;4.27;;;3.10;;
26040;SDS011;13816;53.628;9.950;2023-05-07T16:22:24;4.50;;;2.70;;
26040;SDS011;13816;53.628;9.950;2023-05-07T16:24:52;3.17;;;2.43;;
26040;SDS011;13816;53.628;9.950;2023-05-07T16:27:21;4.90;;;2.73;;
26040;SDS011;13816;53.628;9.950;2023-05-07T16:29:49;2.70;;;2.30;;
26040;SDS011;13816;53.628;9.950;2023-05-07T16:32:17;4.20;;;2.43;;
26040;SDS011;13816;53.628;9.950;2023-05-07T16:34:45;2.93;;;2.60;;
26040;SDS011;13816;53.628;9.950;2023-05-07T16:37:12;2.47;;;2.27;;
26040;SDS011;13816;53.628;9.950;2023-05-07T16:39:40;3.60;;;2.40;;
26040;SDS011;13816;53.628;9.950;2023-05-07T16:42:07;3.23;;;2.40;;
26040;SDS011;13816;53.628;9.950;2023-05-07T16:44:35;2.60;;;2.40;;
26040;SDS011;13816;53.628;9.950;2023-05-07T16:47:02;2.90;;;2.30;;
26040;SDS011;13816;53.628;9.950;2023-05-07T16:49:30;2.30;;;2.10;;
26040;SDS011;13816;53.628;9.950;2023-05-07T16:51:57;2.53;;;2.33;;
26040;SDS011;13816;53.628;9.950;2023-05-07T16:54:24;3.00;;;2.30;;
26040;SDS011;13816;53.628;9.950;2023-05-07T16:56:52;2.37;;;2.17;;
26040;SDS011;13816;53.628;9.950;2023-05-07T16:59:20;2.70;;;2.50;;
26040;SDS011;13816;53.628;9.950;2023-05-07T17:01:48;2.67;;;2.47;;
26040;SDS011;13816;53.628;9.950;2023-05-07T17:04:17;2.83;;;2.63;;
26040;SDS011;13816;53.628;9.950;2023-05-07T17:06:45;7.80;;;4.57;;
26040;SDS011;13816;53.628;9.950;2023-05-07T17:09:12;2.73;;;2.53;;
26040;SDS011;13816;53.628;9.950;2023-05-07T17:11:42;4.00;;;2.37;;
26040;SDS011;13816;53.628;9.950;2023-05-07T17:14:09;6.30;;;2.97;;
26040;SDS011;13816;53.628;9.950;2023-05-07T17:16:37;2.60;;;2.40;;
26040;SDS011;13816;53.628;9.950;2023-05-07T17:19:04;3.57;;;2.70;;
26040;SDS011;13816;53.628;9.950;2023-05-07T17:21:37;3.00;;;2.80;;
26040;SDS011;13816;53.628;9.950;2023-05-07T17:24:05;4.90;;;3.67;;
26040;SDS011;13816;53.628;9.950;2023-05-07T17:26:32;3.77;;;2.60;;
26040;SDS011;13816;53.628;9.950;2023-05-07T17:29:02;3.20;;;2.43;;
26040;SDS011;13816;53.628;9.950;2023-05-07T17:31:29;4.73;;;2.87;;
26040;SDS011;13816;53.628;9.950;2023-05-07T17:33:57;2.53;;;2.30;;
26040;SDS011;13816;53.628;9.950;2023-05-07T17:36:24;5.23;;;2.87;;
26040;SDS011;13816;53.628;9.950;2023-05-07T17:38:52;4.73;;;3.07;;
26040;SDS011;13816;53.628;9.950;2023-05-07T17:41:19;5.37;;;2.30;;
26040;SDS011;13816;53.628;9.950;2023-05-07T17:43:48;5.20;;;3.00;;
26040;SDS011;13816;53.628;9.950;2023-05-07T17:46:15;2.87;;;2.63;;
26040;SDS011;13816;53.628;9.950;2023-05-07T17:48:43;4.47;;;2.40;;
26040;SDS011;13816;53.628;9.950;2023-05-07T17:51:11;4.30;;;2.03;;
26040;SDS011;13816;53.628;9.950;2023-05-07T17:53:38;3.50;;;2.53;;
26040;SDS011;13816;53.628;9.950;2023-05-07T17:56:09;3.90;;;2.43;;
26040;SDS011;13816;53.628;9.950;2023-05-07T17:58:36;3.20;;;2.60;;
26040;SDS011;13816;53.628;9.950;2023-05-07T18:01:23;3.97;;;2.90;;
26040;SDS011;13816;53.628;9.950;2023-05-07T18:03:50;2.77;;;2.50;;
26040;SDS011;13816;53.628;9.950;2023-05-07T18:06:18;2.60;;;2.40;;
26040;SDS011;13816;53.628;9.950;2023-05-07T18:08:48;7.07;;;2.70;;
26040;SDS011;13816;53.628;9.950;2023-05-07T18:11:18;4.50;;;2.70;;
26040;SDS011;13816;53.628;9.950;2023-05-07T18:13:45;4.90;;;2.97;;
26040;SDS011;13816;53.628;9.950;2023-05-07T18:16:13;8.10;;;2.60;;
26040;SDS011;13816;53.628;9.950;2023-05-07T18:18:40;3.00;;;2.23;;
26040;SDS011;13816;53.628;9.950;2023-05-07T18:21:08;3.43;;;2.37;;
26040;SDS011;13816;53.628;9.950;2023-05-07T18:23:40;3.30;;;2.47;;
26040;SDS011;13816;53.628;9.950;2023-05-07T18:26:08;2.50;;;2.30;;
26040;SDS011;13816;53.628;9.950;2023-05-07T18:28:35;3.83;;;2.80;;
26040;SDS011;13816;53.628;9.950;2023-05-07T18:31:03;4.97;;;2.93;;
26040;SDS011;13816;53.628;9.950;2023-05-07T18:33:31;9.73;;;2.77;;
26040;SDS011;13816;53.628;9.950;2023-05-07T18:35:59;3.83;;;2.70;;
26040;SDS011;13816;53.628;9.950;2023-05-07T18:38:26;3.90;;;2.63;;
26040;SDS011;13816;53.628;9.950;2023-05-07T18:40:59;4.10;;;2.63;;
26040;SDS011;13816;53.628;9.950;2023-05-07T18:43:26;3.03;;;2.57;;
26040;SDS011;13816;53.628;9.950;2023-05-07T18:45:54;2.40;;;2.20;;
26040;SDS011;13816;53.628;9.950;2023-05-07T18:48:22;4.30;;;2.30;;
26040;SDS011;13816;53.628;9.950;2023-05-07T18:50:52;3.20;;;2.90;;
26040;SDS011;13816;53.628;9.950;2023-05-07T18:53:19;4.20;;;2.43;;
26040;SDS011;13816;53.628;9.950;2023-05-07T18:55:50;4.13;;;2.80;;
26040;SDS011;13816;53.628;9.950;2023-05-07T18:58:18;3.30;;;2.63;;
26040;SDS011;13816;53.628;9.950;2023-05-07T19:00:48;6.67;;;2.20;;
26040;SDS011;13816;53.628;9.950;2023-05-07T19:03:16;5.33;;;1.97;;
26040;SDS011;13816;53.628;9.950;2023-05-07T19:05:44;2.60;;;2.40;;
26040;SDS011;13816;53.628;9.950;2023-05-07T19:08:11;3.67;;;2.23;;
26040;SDS011;13816;53.628;9.950;2023-05-07T19:10:39;2.40;;;2.20;;
26040;SDS011;13816;53.628;9.950;2023-05-07T19:13:06;2.23;;;2.00;;
26040;SDS011;13816;53.628;9.950;2023-05-07T19:15:34;3.60;;;2.27;;
26040;SDS011;13816;53.628;9.950;2023-05-07T19:18:01;2.50;;;2.30;;
26040;SDS011;13816;53.628;9.950;2023-05-07T19:20:29;5.23;;;2.70;;
26040;SDS011;13816;53.628;9.950;2023-05-07T19:22:56;2.47;;;2.27;;
26040;SDS011;13816;53.628;9.950;2023-05-07T19:25:24;2.40;;;1.90;;
26040;SDS011;13816;53.628;9.950;2023-05-07T19:27:51;3.53;;;2.50;;
26040;SDS011;13816;53.628;9.950;2023-05-07T19:30:18;5.47;;;2.77;;